createdAt,value
2018-10-09T00:02:14.226Z,100097.11
2018-10-09T00:04:43.600Z,100098.25
2018-10-09T00:07:12.543Z,100101.34
2018-10-09T00:09:41.441Z,100096.59
2018-10-09T00:12:10.879Z,100100.28
2018-10-09T00:14:39.879Z,100094.21
2018-10-09T00:17:08.932Z,100099.51
2018-10-09T00:19:38.779Z,100096.77
2018-10-09T00:22:07.719Z,100100.95
2018-10-09T00:24:36.723Z,100103.20
2018-10-09T00:27:06.119Z,100101.48
2018-10-09T00:29:35.172Z,100102.34
2018-10-09T00:32:04.126Z,100108.34
2018-10-09T00:34:33.541Z,100105.61
2018-10-09T00:37:02.490Z,100107.16
2018-10-09T00:39:31.558Z,100106.72
2018-10-09T00:42:00.681Z,100106.41
2018-10-09T00:44:29.908Z,100113.27
2018-10-09T00:46:58.832Z,100107.03
2018-10-09T00:49:27.879Z,100107.27
2018-10-09T00:51:56.768Z,100106.77
2018-10-09T00:54:25.684Z,100105.37
2018-10-09T00:56:55.219Z,100113.52
2018-10-09T00:59:24.484Z,100112.20
2018-10-09T01:01:53.546Z,100111.66
2018-10-09T01:04:22.665Z,100111.19
2018-10-09T01:06:51.824Z,100116.52
2018-10-09T01:09:21.115Z,100110.65
2018-10-09T01:11:50.539Z,100117.34
2018-10-09T01:14:19.489Z,100112.41
2018-10-09T01:16:48.619Z,100108.75
2018-10-09T01:19:17.636Z,100107.34
2018-10-09T01:21:46.538Z,100109.53
2018-10-09T01:24:15.365Z,100112.44
2018-10-09T01:26:44.872Z,100112.52
2018-10-09T01:29:14.491Z,100112.83
2018-10-09T01:31:43.694Z,100114.30
2018-10-09T01:34:12.980Z,100113.80
2018-10-09T01:36:41.988Z,100120.27
2018-10-09T01:39:11.559Z,100120.56
2018-10-09T01:41:40.625Z,100116.48
2018-10-09T01:44:09.664Z,100116.41
2018-10-09T01:46:38.758Z,100117.38
2018-10-09T01:49:08.147Z,100108.70
2018-10-09T01:51:37.242Z,100115.74
2018-10-09T01:54:06.152Z,100109.25
2018-10-09T01:56:35.435Z,100114.93
2018-10-09T01:59:04.423Z,100106.92
2018-10-09T02:01:33.606Z,100112.44
2018-10-09T02:04:03.324Z,100111.11
2018-10-09T02:06:32.164Z,100109.09
2018-10-09T02:09:01.159Z,100112.70
2018-10-09T02:11:30.592Z,100113.72
2018-10-09T02:13:59.495Z,100112.47
2018-10-09T02:16:28.511Z,100107.88
2018-10-09T02:18:57.680Z,100110.63
2018-10-09T02:21:26.705Z,100116.39
2018-10-09T02:23:55.685Z,100122.06
2018-10-09T02:26:25.364Z,100119.81
2018-10-09T02:28:54.394Z,100122.21
2018-10-09T02:38:08.474Z,100120.76
2018-10-09T02:40:37.361Z,100114.48
2018-10-09T02:43:06.411Z,100112.30
2018-10-09T02:45:35.388Z,100119.09
2018-10-09T02:48:04.560Z,100115.09
2018-10-09T02:50:33.516Z,100109.45
2018-10-09T02:53:02.467Z,100107.34
2018-10-09T02:55:31.599Z,100113.03
2018-10-09T02:58:00.836Z,100113.71
2018-10-09T03:00:29.992Z,100109.61
2018-10-09T03:02:58.956Z,100111.06
2018-10-09T03:05:28.243Z,100107.18
2018-10-09T03:07:57.184Z,100113.23
2018-10-09T03:10:26.275Z,100112.98
2018-10-09T03:12:55.179Z,100114.81
2018-10-09T03:15:24.249Z,100120.95
2018-10-09T03:17:53.085Z,100125.13
2018-10-09T03:20:22.387Z,100134.50
2018-10-09T03:22:51.366Z,100138.72
2018-10-09T03:25:20.608Z,100139.39
2018-10-09T03:27:49.719Z,100135.89
2018-10-09T03:30:18.526Z,100136.39
2018-10-09T03:32:47.576Z,100135.47
2018-10-09T03:35:16.768Z,100137.64
2018-10-09T03:37:45.841Z,100136.59
2018-10-09T03:40:14.852Z,100143.27
2018-10-09T03:42:44.013Z,100141.09
2018-10-09T03:45:13.162Z,100141.48
2018-10-09T03:47:42.218Z,100145.91
2018-10-09T03:50:11.230Z,100146.90
2018-10-09T03:52:40.364Z,100145.05
2018-10-09T03:55:09.352Z,100151.97
2018-10-09T03:57:38.626Z,100151.05
2018-10-09T04:00:07.956Z,100152.63
2018-10-09T04:02:37.114Z,100155.69
2018-10-09T04:05:06.289Z,100167.90
2018-10-09T04:07:35.308Z,100161.88
2018-10-09T04:10:04.411Z,100158.76
2018-10-09T04:12:34.812Z,100158.89
2018-10-09T04:15:03.869Z,100163.31
2018-10-09T04:17:32.886Z,100159.82
2018-10-09T04:20:02.020Z,100155.69
2018-10-09T04:22:30.965Z,100160.91
2018-10-09T04:24:59.941Z,100166.44
2018-10-09T04:27:29.065Z,100165.66
2018-10-09T04:29:58.123Z,100163.61
2018-10-09T04:32:27.220Z,100160.51
2018-10-09T04:34:56.286Z,100159.65
2018-10-09T04:37:25.336Z,100165.36
2018-10-09T04:39:54.488Z,100162.48
2018-10-09T04:42:23.521Z,100165.05
2018-10-09T04:44:52.794Z,100168.48
2018-10-09T04:47:21.848Z,100170.72
2018-10-09T04:49:51.265Z,100174.05
2018-10-09T04:52:20.379Z,100174.16
2018-10-09T04:54:49.453Z,100178.87
2018-10-09T04:57:18.586Z,100181.05
2018-10-09T04:59:47.589Z,100180.73
2018-10-09T05:02:16.798Z,100180.92
2018-10-09T05:04:45.876Z,100185.67
2018-10-09T05:07:14.835Z,100188.31
2018-10-09T05:09:43.789Z,100192.56
2018-10-09T05:12:13.193Z,100192.81
2018-10-09T05:14:42.071Z,100189.64
2018-10-09T05:17:11.239Z,100197.24
2018-10-09T05:19:40.646Z,100192.28
2018-10-09T05:22:09.622Z,100207.89
2018-10-09T05:24:38.567Z,100203.70
2018-10-09T05:27:07.722Z,100200.88
2018-10-09T05:29:36.550Z,100207.98
2018-10-09T05:32:05.468Z,100198.86
2018-10-09T05:34:34.771Z,100207.31
2018-10-09T05:37:03.687Z,100213.45
2018-10-09T05:39:32.574Z,100211.77
2018-10-09T05:42:01.841Z,100215.50
2018-10-09T05:44:30.860Z,100218.67
2018-10-09T05:46:59.652Z,100225.04
2018-10-09T05:49:28.964Z,100224.29
2018-10-09T05:51:58.037Z,100225.48
2018-10-09T05:54:26.886Z,100225.44
2018-10-09T05:56:56.004Z,100232.06
2018-10-09T05:59:24.891Z,100231.05
2018-10-09T06:01:53.806Z,100231.05
2018-10-09T06:04:22.899Z,100237.50
2018-10-09T06:06:51.863Z,100233.92
2018-10-09T06:09:20.726Z,100238.94
2018-10-09T06:11:49.723Z,100234.34
2018-10-09T06:14:18.698Z,100235.43
2018-10-09T06:16:47.567Z,100225.86
2018-10-09T06:19:16.579Z,100236.47
2018-10-09T06:21:45.572Z,100231.56
2018-10-09T06:24:14.530Z,100235.52
2018-10-09T06:26:43.889Z,100239.83
2018-10-09T06:29:12.758Z,100250.30
2018-10-09T06:31:41.766Z,100240.03
2018-10-09T06:34:10.833Z,100243.23
2018-10-09T06:36:39.840Z,100248.83
2018-10-09T06:39:10.725Z,100248.81
2018-10-09T06:41:40.089Z,100256.13
2018-10-09T06:44:08.905Z,100259.97
2018-10-09T06:46:38.297Z,100259.41
2018-10-09T06:49:07.310Z,100254.38
2018-10-09T06:51:36.282Z,100259.34
2018-10-09T06:54:05.430Z,100269.17
2018-10-09T06:56:34.233Z,100271.91
2018-10-09T06:59:03.193Z,100269.61
2018-10-09T07:01:32.157Z,100273.66
2018-10-09T07:04:01.176Z,100274.66
2018-10-09T07:07:59.568Z,100269.86
2018-10-09T07:11:57.717Z,100267.36
2018-10-09T07:14:27.388Z,100271.34
2018-10-09T07:16:56.295Z,100276.38
2018-10-09T07:19:25.238Z,100271.77
2018-10-09T07:21:54.330Z,100274.00
2018-10-09T07:24:23.274Z,100276.79
2018-10-09T07:26:52.204Z,100278.53
2018-10-09T07:29:21.301Z,100278.08
2018-10-09T07:31:50.356Z,100274.41
2018-10-09T07:34:19.387Z,100275.94
2018-10-09T07:36:48.392Z,100275.02
2018-10-09T07:39:17.326Z,100276.36
2018-10-09T07:41:46.190Z,100271.61
2018-10-09T07:44:15.344Z,100277.33
2018-10-09T07:46:44.336Z,100271.53
2018-10-09T07:49:13.223Z,100268.20
2018-10-09T07:51:42.262Z,100260.76
2018-10-09T07:54:11.188Z,100266.26
2018-10-09T07:56:40.075Z,100265.09
2018-10-09T08:00:38.337Z,100264.09
2018-10-09T08:03:07.383Z,100262.75
2018-10-09T08:05:36.274Z,100261.20
2018-10-09T08:08:05.517Z,100267.34
2018-10-09T08:10:34.649Z,100265.67
2018-10-09T08:13:03.606Z,100262.12
2018-10-09T08:15:32.672Z,100264.90
2018-10-09T08:18:01.695Z,100269.41
2018-10-09T08:20:30.647Z,100269.13
2018-10-09T08:22:59.993Z,100263.69
2018-10-09T08:25:28.861Z,100260.98
2018-10-09T08:27:57.814Z,100261.27
2018-10-09T08:30:26.854Z,100255.72
2018-10-09T08:32:55.747Z,100259.17
2018-10-09T08:35:24.721Z,100258.16
2018-10-09T08:37:53.914Z,100257.38
2018-10-09T08:40:22.976Z,100252.46
2018-10-09T08:42:51.968Z,100256.86
2018-10-09T08:45:21.358Z,100244.64
2018-10-09T08:47:50.248Z,100251.23
2018-10-09T08:50:19.158Z,100249.22
2018-10-09T08:53:50.843Z,100248.12
2018-10-09T08:56:19.763Z,100248.44
2018-10-09T08:58:48.712Z,100250.35
2018-10-09T09:01:17.943Z,100244.41
2018-10-09T09:03:46.835Z,100242.81
2018-10-09T09:06:15.781Z,100247.36
2018-10-09T09:08:45.219Z,100235.97
2018-10-09T09:11:14.164Z,100237.84
2018-10-09T09:13:43.169Z,100237.88
2018-10-09T09:16:12.480Z,100240.84
2018-10-09T09:18:41.579Z,100245.16
2018-10-09T09:21:10.659Z,100242.17
2018-10-09T09:23:39.652Z,100244.33
2018-10-09T09:26:08.607Z,100239.23
2018-10-09T09:28:37.721Z,100235.31
2018-10-09T09:31:06.976Z,100238.23
2018-10-09T09:33:36.003Z,100244.54
2018-10-09T09:36:04.962Z,100247.84
2018-10-09T09:38:33.926Z,100236.27
2018-10-09T09:41:02.987Z,100233.39
2018-10-09T09:43:31.877Z,100231.59
2018-10-09T09:46:01.151Z,100229.78
2018-10-09T09:48:29.892Z,100229.42
2018-10-09T09:50:58.963Z,100228.79
2018-10-09T09:53:28.065Z,100219.28
2018-10-09T09:55:56.913Z,100225.48
2018-10-09T09:58:26.040Z,100218.30
2018-10-09T10:00:59.052Z,100210.13
2018-10-09T10:03:28.311Z,100219.00
2018-10-09T10:05:57.229Z,100212.83
2018-10-09T10:08:26.132Z,100212.56
2018-10-09T10:10:55.040Z,100210.73
2018-10-09T10:13:23.950Z,100207.78
2018-10-09T10:15:53.086Z,100204.44
2018-10-09T10:25:06.681Z,100190.05
2018-10-09T10:27:35.761Z,100189.91
2018-10-09T10:30:04.825Z,100186.81
2018-10-09T10:32:34.020Z,100179.47
2018-10-09T10:35:02.864Z,100182.32
2018-10-09T10:37:31.776Z,100178.86
2018-10-09T10:40:01.498Z,100171.98
2018-10-09T10:42:30.453Z,100174.76
2018-10-09T10:44:59.297Z,100170.11
2018-10-09T10:47:28.368Z,100168.28
2018-10-09T10:49:57.145Z,100167.23
2018-10-09T10:52:26.070Z,100166.63
2018-10-09T10:54:55.100Z,100175.13
2018-10-09T10:57:24.140Z,100170.83
2018-10-09T10:59:53.006Z,100167.89
2018-10-09T11:02:22.081Z,100160.19
2018-10-09T11:04:50.926Z,100159.28
2018-10-09T11:07:20.868Z,100152.84
2018-10-09T11:09:50.245Z,100147.62
2018-10-09T11:12:19.084Z,100147.93
2018-10-09T11:14:48.006Z,100148.05
2018-10-09T11:17:17.124Z,100150.56
2018-10-09T11:19:46.088Z,100143.69
2018-10-09T11:22:15.063Z,100146.65
2018-10-09T11:24:44.135Z,100138.86
2018-10-09T11:27:13.090Z,100143.33
2018-10-09T11:29:42.020Z,100141.05
2018-10-09T11:32:10.936Z,100136.33
2018-10-09T11:34:39.957Z,100124.71
2018-10-09T11:37:09.084Z,100133.20
2018-10-09T11:39:38.324Z,100129.05
2018-10-09T11:42:07.388Z,100133.27
2018-10-09T11:44:36.364Z,100125.16
2018-10-09T11:48:35.936Z,100121.47
2018-10-09T11:51:04.929Z,100120.27
2018-10-09T11:53:33.952Z,100124.34
2018-10-09T11:56:03.311Z,100122.54
2018-10-09T11:58:32.292Z,100119.25
2018-10-09T12:01:04.280Z,100119.39
2018-10-09T12:03:33.730Z,100111.40
2018-10-09T12:06:02.636Z,100113.59
2018-10-09T12:08:31.904Z,100114.44
2018-10-09T12:11:01.170Z,100111.19
2018-10-09T12:13:30.233Z,100113.27
2018-10-09T12:16:01.997Z,100111.92
2018-10-09T12:18:31.151Z,100116.31
2018-10-09T12:21:00.247Z,100119.28
2018-10-09T12:23:29.682Z,100115.92
2018-10-09T12:25:58.677Z,100115.25
2018-10-09T12:29:57.915Z,100113.66
2018-10-09T12:39:14.169Z,100113.12
2018-10-09T12:41:43.277Z,100110.80
2018-10-09T12:44:12.384Z,100101.87
2018-10-09T12:46:41.601Z,100109.02
2018-10-09T12:49:10.922Z,100103.86
2018-10-09T12:51:40.045Z,100106.50
2018-10-09T12:54:13.676Z,100103.81
2018-10-09T12:56:42.897Z,100104.31
2018-10-09T12:59:14.228Z,100102.14
2018-10-09T13:01:43.476Z,100095.77
2018-10-09T13:04:12.611Z,100096.92
2018-10-09T13:06:41.722Z,100094.52
2018-10-09T13:09:13.396Z,100094.97
2018-10-09T13:11:42.612Z,100096.92
2018-10-09T13:14:13.079Z,100096.47
2018-10-09T13:16:42.376Z,100089.94
2018-10-09T13:19:12.745Z,100084.13
2018-10-09T13:21:42.970Z,100087.89
2018-10-09T13:24:12.204Z,100090.13
2018-10-09T13:26:41.254Z,100087.11
2018-10-09T13:29:10.671Z,100074.86
2018-10-09T13:31:39.729Z,100079.53
2018-10-09T13:34:08.710Z,100074.86
2018-10-09T13:36:37.641Z,100074.05
2018-10-09T13:39:07.728Z,100075.24
2018-10-09T13:41:36.674Z,100070.77
2018-10-09T13:44:06.102Z,100070.56
2018-10-09T13:46:34.981Z,100063.94
2018-10-09T13:49:03.867Z,100064.64
2018-10-09T13:51:32.903Z,100071.02
2018-10-09T13:54:01.945Z,100064.14
2018-10-09T13:56:30.907Z,100070.66
2018-10-09T13:59:00.129Z,100067.42
2018-10-09T14:01:29.009Z,100067.42
2018-10-09T14:03:57.992Z,100066.23
2018-10-09T14:06:27.222Z,100067.14
2018-10-09T14:08:56.242Z,100070.61
2018-10-09T14:11:25.141Z,100057.52
2018-10-09T14:13:54.144Z,100061.34
2018-10-09T14:16:23.177Z,100053.94
2018-10-09T14:18:52.198Z,100057.02
2018-10-09T14:21:21.289Z,100058.09
2018-10-09T14:23:50.262Z,100052.52
2018-10-09T14:26:19.174Z,100053.27
2018-10-09T14:28:48.205Z,100050.16
2018-10-09T14:33:45.110Z,100054.19
2018-10-09T14:36:14.065Z,100053.73
2018-10-09T14:38:42.874Z,100063.36
2018-10-09T14:41:11.906Z,100062.91
2018-10-09T14:43:40.992Z,100066.16
2018-10-09T14:46:12.432Z,100062.17
2018-10-09T14:48:41.834Z,100054.64
2018-10-09T14:51:11.151Z,100057.05
2018-10-09T14:53:40.204Z,100054.39
2018-10-09T14:56:09.383Z,100057.97
2018-10-09T14:58:38.341Z,100059.52
2018-10-09T15:01:07.816Z,100059.05
2018-10-09T15:03:37.180Z,100063.64
2018-10-09T15:06:06.199Z,100067.78
2018-10-09T15:10:04.669Z,100064.41
2018-10-09T15:12:33.673Z,100068.42
2018-10-09T15:15:02.740Z,100070.20
2018-10-09T15:17:31.803Z,100072.33
2018-10-09T15:20:00.589Z,100069.49
2018-10-09T15:22:29.445Z,100071.88
2018-10-09T15:24:58.463Z,100073.22
2018-10-09T15:27:27.371Z,100075.47
2018-10-09T15:29:56.309Z,100078.18
2018-10-09T15:32:25.312Z,100080.42
2018-10-09T15:34:54.196Z,100082.91
2018-10-09T15:37:23.200Z,100085.98
2018-10-09T15:39:52.555Z,100083.70
2018-10-09T15:42:21.490Z,100086.77
2018-10-09T15:44:50.787Z,100088.00
2018-10-09T15:47:19.931Z,100087.88
2018-10-09T15:49:49.013Z,100091.89
2018-10-09T15:52:18.129Z,100087.14
2018-10-09T15:54:47.200Z,100089.57
2018-10-09T15:57:16.829Z,100090.66
2018-10-09T15:59:47.461Z,100095.40
2018-10-09T16:02:16.624Z,100090.30
2018-10-09T16:04:45.580Z,100098.80
2018-10-09T16:07:14.941Z,100097.33
2018-10-09T16:09:43.975Z,100101.69
2018-10-09T16:12:13.157Z,100106.04
2018-10-09T16:14:42.152Z,100113.42
2018-10-09T16:17:11.374Z,100109.02
2018-10-09T16:19:40.493Z,100116.40
2018-10-09T16:22:09.697Z,100121.74
2018-10-09T16:24:38.825Z,100127.30
2018-10-09T16:27:07.867Z,100133.94
2018-10-09T16:29:37.110Z,100136.23
2018-10-09T16:32:06.284Z,100139.95
2018-10-09T16:34:35.345Z,100145.67
2018-10-09T16:37:04.741Z,100153.02
2018-10-09T16:39:33.662Z,100147.30
2018-10-09T16:42:02.776Z,100146.20
2018-10-09T16:44:31.804Z,100138.01
2018-10-09T16:47:04.544Z,100155.49
2018-10-09T16:49:34.773Z,100165.05
2018-10-09T16:52:04.072Z,100161.33
2018-10-09T16:54:33.120Z,100163.28
2018-10-09T16:57:02.149Z,100167.41
2018-10-09T16:59:31.075Z,100170.45
2018-10-09T17:02:00.068Z,100172.88
2018-10-09T17:04:29.262Z,100178.70
2018-10-09T17:06:58.172Z,100173.09
2018-10-09T17:09:27.082Z,100180.31
2018-10-09T17:11:56.748Z,100177.64
2018-10-09T17:14:25.673Z,100182.87
2018-10-09T17:16:54.630Z,100184.07
2018-10-09T17:19:23.585Z,100185.23
2018-10-09T17:21:52.548Z,100184.73
2018-10-09T17:24:21.683Z,100189.83
2018-10-09T17:26:51.172Z,100188.17
2018-10-09T17:29:20.012Z,100197.91
2018-10-09T17:31:49.137Z,100200.50
2018-10-09T17:34:18.526Z,100196.61
2018-10-09T17:36:47.648Z,100200.32
2018-10-09T17:39:16.718Z,100197.69
2018-10-09T17:41:45.888Z,100202.95
2018-10-09T17:44:14.798Z,100209.09
2018-10-09T17:46:43.974Z,100209.84
2018-10-09T17:49:14.215Z,100207.77
2018-10-09T17:51:43.297Z,100210.77
2018-10-09T17:54:12.418Z,100212.30
2018-10-09T17:56:44.647Z,100216.67
2018-10-09T17:59:16.217Z,100215.16
2018-10-09T18:01:45.285Z,100223.91
2018-10-09T18:04:14.396Z,100224.50
2018-10-09T18:06:43.593Z,100223.30
2018-10-09T18:09:13.479Z,100223.05
2018-10-09T18:11:42.479Z,100236.02
2018-10-09T18:14:12.052Z,100235.64
2018-10-09T18:16:41.013Z,100236.91
2018-10-09T18:19:10.095Z,100238.00
2018-10-09T18:21:39.333Z,100243.09
2018-10-09T18:24:08.240Z,100247.50
2018-10-09T18:26:37.173Z,100253.22
2018-10-09T18:29:06.413Z,100253.80
2018-10-09T18:31:35.345Z,100254.75
2018-10-09T18:34:04.582Z,100255.33
2018-10-09T18:36:34.079Z,100251.84
2018-10-09T18:39:03.086Z,100264.77
2018-10-09T18:41:32.379Z,100262.69
2018-10-09T18:44:01.305Z,100262.59
2018-10-09T18:46:30.485Z,100269.85
2018-10-09T18:48:59.342Z,100268.34
2018-10-09T18:51:28.684Z,100277.06
2018-10-09T18:53:57.628Z,100273.72
2018-10-09T18:56:26.671Z,100281.92
2018-10-09T18:58:55.927Z,100281.83
2018-10-09T19:01:24.921Z,100291.09
2018-10-09T19:03:53.947Z,100288.63
2018-10-09T19:06:23.029Z,100296.22
2018-10-09T19:08:52.000Z,100294.42
2018-10-09T19:18:09.725Z,100306.09
2018-10-09T19:20:38.631Z,100311.79
2018-10-09T19:23:07.901Z,100304.23
2018-10-09T19:25:37.176Z,100311.45
2018-10-09T19:28:06.864Z,100310.41
2018-10-09T19:30:35.908Z,100313.07
2018-10-09T19:33:05.516Z,100316.86
2018-10-09T19:35:34.861Z,100321.23
2018-10-09T19:38:03.785Z,100323.09
2018-10-09T19:40:33.622Z,100327.88
2018-10-09T19:43:02.494Z,100326.94
2018-10-09T19:45:31.462Z,100331.16
2018-10-09T19:48:00.483Z,100337.53
2018-10-09T19:50:29.415Z,100341.17
2018-10-09T19:52:58.327Z,100342.73
2018-10-09T19:55:27.739Z,100335.14
2018-10-09T19:57:56.652Z,100338.59
2018-10-09T20:00:25.648Z,100344.91
2018-10-09T20:02:54.753Z,100341.02
2018-10-09T20:05:23.904Z,100342.94
2018-10-09T20:07:53.352Z,100349.16
2018-10-09T20:10:22.459Z,100351.82
2018-10-09T20:12:51.526Z,100353.17
2018-10-09T20:15:20.469Z,100358.59
2018-10-09T20:17:49.797Z,100363.61
2018-10-09T20:20:18.665Z,100365.23
2018-10-09T20:22:47.648Z,100363.84
2018-10-09T20:25:17.067Z,100362.22
2018-10-09T20:27:46.069Z,100362.86
2018-10-09T20:30:15.418Z,100364.27
2018-10-09T20:32:45.100Z,100358.90
2018-10-09T20:35:14.230Z,100358.42
2018-10-09T20:37:43.473Z,100358.16
2018-10-09T20:40:12.650Z,100359.34
2018-10-09T20:42:41.625Z,100353.41
2018-10-09T20:45:10.786Z,100356.77
2018-10-09T20:47:44.814Z,100361.45
2018-10-09T20:50:14.676Z,100359.59
2018-10-09T20:52:44.417Z,100362.53
2018-10-09T20:55:13.523Z,100370.65
2018-10-09T20:57:42.571Z,100368.48
2018-10-09T21:00:11.992Z,100364.58
2018-10-09T21:02:40.970Z,100368.41
2018-10-09T21:05:10.079Z,100374.02
2018-10-09T21:07:39.462Z,100372.94
2018-10-09T21:10:08.416Z,100373.71
2018-10-09T21:12:37.690Z,100374.26
2018-10-09T21:15:06.942Z,100376.96
2018-10-09T21:17:35.933Z,100381.06
2018-10-09T21:20:04.900Z,100386.05
2018-10-09T21:22:34.033Z,100386.36
2018-10-09T21:25:02.844Z,100383.67
2018-10-09T21:27:31.859Z,100384.80
2018-10-09T21:30:01.081Z,100382.78
2018-10-09T21:32:29.953Z,100379.19
2018-10-09T21:34:58.797Z,100379.73
2018-10-09T21:37:27.697Z,100386.36
2018-10-09T21:39:56.597Z,100380.44
2018-10-09T21:42:25.447Z,100393.06
2018-10-09T21:44:54.390Z,100391.85
2018-10-09T21:47:23.217Z,100390.30
2018-10-09T21:49:52.158Z,100397.31
2018-10-09T21:52:21.194Z,100397.44
2018-10-09T21:54:50.127Z,100400.16
2018-10-09T21:57:19.005Z,100403.44
2018-10-09T21:59:47.908Z,100396.73
2018-10-09T22:02:16.760Z,100405.54
2018-10-09T22:04:45.645Z,100402.78
2018-10-09T22:07:18.134Z,100399.14
2018-10-09T22:09:47.130Z,100401.25
2018-10-09T22:12:16.000Z,100400.86
2018-10-09T22:14:44.953Z,100406.09
2018-10-09T22:17:13.839Z,100408.03
2018-10-09T22:19:42.675Z,100409.87
2018-10-09T22:22:11.604Z,100410.80
2018-10-09T22:24:40.492Z,100406.20
2018-10-09T22:27:09.346Z,100406.33
2018-10-09T22:29:38.267Z,100406.33
2018-10-09T22:32:07.210Z,100407.80
2018-10-09T22:34:36.443Z,100408.73
2018-10-09T22:37:05.772Z,100409.28
2018-10-09T22:39:34.568Z,100416.52
2018-10-09T22:42:03.426Z,100413.52
2018-10-09T22:44:32.835Z,100415.00
2018-10-09T22:47:01.669Z,100418.04
2018-10-09T22:49:30.620Z,100417.25
2018-10-09T22:52:00.123Z,100416.08
2018-10-09T22:54:29.049Z,100412.62
2018-10-09T22:56:58.031Z,100418.92
2018-10-09T22:59:27.803Z,100415.02
2018-10-09T23:01:56.927Z,100412.64
2018-10-09T23:04:25.921Z,100412.08
2018-10-09T23:06:55.165Z,100415.34
2018-10-09T23:09:24.386Z,100419.25
2018-10-09T23:11:53.465Z,100420.91
2018-10-09T23:14:22.483Z,100425.27
2018-10-09T23:16:51.688Z,100426.92
2018-10-09T23:19:20.944Z,100424.34
2018-10-09T23:21:49.969Z,100421.52
2018-10-09T23:24:19.093Z,100427.06
2018-10-09T23:26:48.195Z,100429.38
2018-10-09T23:29:17.227Z,100437.00
2018-10-09T23:31:46.341Z,100430.84
2018-10-09T23:34:15.351Z,100431.81
2018-10-09T23:36:44.381Z,100432.84
2018-10-09T23:39:13.404Z,100436.34
2018-10-09T23:42:45.730Z,100426.29
2018-10-09T23:45:14.847Z,100429.31
2018-10-09T23:47:43.920Z,100429.16
2018-10-09T23:50:13.549Z,100430.68
2018-10-09T23:52:42.547Z,100430.06
2018-10-09T23:55:11.636Z,100425.97
2018-10-09T23:57:40.732Z,100423.39
